Time;durP1;ratioP1;P1;durP2;ratioP2;P2;SDS_P1;SDS_P2;PMS_P1;PMS_P2;Temp;Humidity;BMP_temperature;BMP_pressure;BME280_temperature;BME280_humidity;BME280_pressure;Samples;Min_cycle;Max_cycle;Signal;HPM_P1;HPM_P2
2022/01/02 00:02:36;;;;;;;11.32;6.28;;;6.80;92.30;;;;;;4998625;28;20047;-84
2022/01/02 00:05:06;;;;;;;12.30;5.82;;;6.80;92.30;;;;;;5005559;28;20571;-82
2022/01/02 00:07:35;;;;;;;11.27;6.05;;;6.80;92.40;;;;;;5016472;28;20845;-82
2022/01/02 00:10:04;;;;;;;18.23;6.38;;;6.80;92.40;;;;;;5013605;28;20040;-81
2022/01/02 00:12:32;;;;;;;17.27;6.70;;;6.80;92.40;;;;;;5018523;28;20041;-81
2022/01/02 00:14:58;;;;;;;10.77;5.90;;;6.80;92.40;;;;;;5039199;28;20116;-81
2022/01/02 00:17:23;;;;;;;12.55;5.97;;;6.80;92.50;;;;;;5015023;28;20139;-80
2022/01/02 00:19:55;;;;;;;13.05;6.50;;;6.80;92.50;;;;;;5004175;28;20049;-81
2022/01/02 00:22:28;;;;;;;11.35;5.40;;;6.80;92.50;;;;;;5026262;28;20578;-81
2022/01/02 00:24:54;;;;;;;14.73;5.90;;;6.80;92.50;;;;;;4999854;28;20060;-81
2022/01/02 00:27:20;;;;;;;14.50;5.75;;;6.80;92.50;;;;;;5005646;28;20036;-82
2022/01/02 00:29:46;;;;;;;11.18;5.20;;;6.80;92.50;;;;;;5025029;28;20099;-80
2022/01/02 00:32:12;;;;;;;16.40;5.82;;;6.80;92.60;;;;;;5020489;28;20042;-82
2022/01/02 00:34:38;;;;;;;10.90;6.00;;;6.80;92.60;;;;;;5024948;28;20065;-81
2022/01/02 00:37:04;;;;;;;14.57;6.50;;;6.80;92.60;;;;;;5005575;28;20071;-80
2022/01/02 00:39:30;;;;;;;15.10;5.45;;;6.80;92.60;;;;;;5022147;28;20573;-82
2022/01/02 00:42:25;;;;;;;22.83;6.45;;;6.80;92.60;;;;;;5019716;28;20033;-80
2022/01/02 00:45:06;;;;;;;21.48;8.70;;;6.80;92.70;;;;;;5016274;28;20049;-81
2022/01/02 00:47:33;;;;;;;27.55;10.27;;;6.80;92.70;;;;;;5031852;28;20034;-82
2022/01/02 00:50:04;;;;;;;27.55;11.00;;;6.80;92.70;;;;;;5017562;28;20531;-80
2022/01/02 00:52:29;;;;;;;;;;;6.90;92.70;;;;;;5020351;28;20037;-81
2022/01/02 00:54:56;;;;;;;17.55;6.85;;;6.80;92.70;;;;;;5021321;28;19913;-81
2022/01/02 00:57:22;;;;;;;15.18;6.78;;;6.80;92.60;;;;;;5022726;28;20040;-80
2022/01/02 01:00:09;;;;;;;40.67;7.82;;;6.80;92.60;;;;;;5010513;28;20033;-82
2022/01/02 01:02:46;;;;;;;22.42;8.02;;;6.80;92.70;;;;;;5021854;28;20113;-81
2022/01/02 01:05:13;;;;;;;15.00;6.90;;;6.80;92.70;;;;;;5015421;28;20050;-81
2022/01/02 01:07:39;;;;;;;18.73;7.30;;;6.80;92.70;;;;;;5008857;28;20036;-81
2022/01/02 01:10:07;;;;;;;16.52;6.30;;;6.80;92.70;;;;;;5016335;28;20120;-80
2022/01/02 01:12:32;;;;;;;25.17;6.68;;;6.80;92.80;;;;;;5004739;28;20052;-81
2022/01/02 01:14:58;;;;;;;22.48;7.07;;;6.90;92.80;;;;;;5025594;28;20399;-81
2022/01/02 01:17:25;;;;;;;18.63;7.43;;;6.80;92.80;;;;;;5000884;28;20408;-82
2022/01/02 01:19:52;;;;;;;19.42;5.70;;;6.80;92.80;;;;;;5001388;28;20037;-81
2022/01/02 01:22:18;;;;;;;16.52;6.47;;;6.90;92.80;;;;;;5012402;28;20041;-82
2022/01/02 01:24:43;;;;;;;26.30;6.50;;;6.80;92.80;;;;;;5045959;28;20035;-81
2022/01/02 01:27:09;;;;;;;28.42;7.15;;;6.80;92.80;;;;;;5023993;28;20117;-81
2022/01/02 01:29:35;;;;;;;13.15;5.70;;;6.90;92.90;;;;;;5019321;28;20127;-81
2022/01/02 01:32:04;;;;;;;16.25;6.20;;;6.80;92.80;;;;;;5032102;28;20048;-81
2022/01/02 01:34:30;;;;;;;16.00;7.15;;;6.80;92.90;;;;;;5003118;28;20040;-82
2022/01/02 01:36:55;;;;;;;37.22;6.93;;;6.80;92.90;;;;;;5007457;28;20040;-81
2022/01/02 01:39:21;;;;;;;10.75;5.60;;;6.80;92.90;;;;;;5009746;28;20033;-82
2022/01/02 01:41:48;;;;;;;25.50;7.40;;;6.80;92.90;;;;;;4984243;28;20104;-81
2022/01/02 01:46:39;;;;;;;27.40;5.45;;;6.80;92.90;;;;;;5028712;28;20040;-81
2022/01/02 01:49:21;;;;;;;20.15;5.38;;;6.80;92.90;;;;;;5020799;28;20484;-81
2022/01/02 01:51:47;;;;;;;26.30;5.05;;;6.80;93.30;;;;;;5010691;28;20040;-81
2022/01/02 01:54:12;;;;;;;32.03;5.15;;;6.80;92.90;;;;;;5023778;28;20036;-82
2022/01/02 01:56:38;;;;;;;18.67;5.50;;;6.80;92.90;;;;;;5004268;28;20033;-82
2022/01/02 01:59:04;;;;;;;22.63;5.60;;;6.80;92.90;;;;;;5009723;28;20087;-81
2022/01/02 02:01:29;;;;;;;9.98;4.22;;;6.80;93.00;;;;;;5024742;28;20037;-81
2022/01/02 02:03:55;;;;;;;35.22;6.57;;;6.80;93.00;;;;;;5018923;28;20479;-81
2022/01/02 02:06:21;;;;;;;15.57;4.22;;;6.80;93.00;;;;;;5004141;28;20052;-82
2022/01/02 02:08:47;;;;;;;21.80;5.18;;;6.80;93.00;;;;;;5035871;28;20042;-82
2022/01/02 02:11:12;;;;;;;18.13;4.75;;;6.80;93.20;;;;;;5027472;28;20039;-82
2022/01/02 02:13:38;;;;;;;17.15;4.57;;;6.80;93.00;;;;;;4997599;28;20090;-81
2022/01/02 02:16:04;;;;;;;18.05;4.82;;;6.80;93.00;;;;;;5016196;28;20041;-82
2022/01/02 02:18:29;;;;;;;10.05;4.47;;;6.80;93.00;;;;;;4999170;28;20036;-82
2022/01/02 02:20:55;;;;;;;16.27;5.10;;;6.80;93.00;;;;;;5018042;28;21494;-82
2022/01/02 02:23:20;;;;;;;18.13;5.07;;;6.80;93.00;;;;;;5000707;28;20499;-82
2022/01/02 02:25:46;;;;;;;9.85;4.18;;;6.80;93.00;;;;;;5018361;28;20628;-83
2022/01/02 02:28:14;;;;;;;19.58;4.78;;;6.80;93.00;;;;;;5039312;28;20376;-83
2022/01/02 02:30:41;;;;;;;15.32;4.95;;;6.80;93.00;;;;;;5012171;28;20091;-83
2022/01/02 02:33:07;;;;;;;23.70;5.97;;;6.80;93.00;;;;;;5023642;28;21058;-82
2022/01/02 02:35:34;;;;;;;17.38;5.82;;;6.80;93.00;;;;;;5024321;28;20646;-82
2022/01/02 02:37:59;;;;;;;12.38;5.28;;;6.80;93.00;;;;;;4996861;28;20052;-82
2022/01/02 02:40:27;;;;;;;18.38;5.18;;;6.80;93.00;;;;;;4999868;28;20037;-83
2022/01/02 02:43:03;;;;;;;13.20;4.65;;;6.80;93.00;;;;;;5001697;28;20040;-81
2022/01/02 02:51:13;;;;;;;8.93;5.05;;;6.70;93.00;;;;;;4988539;28;20110;-80
2022/01/02 02:53:43;;;;;;;35.53;6.05;;;6.70;93.00;;;;;;5036611;28;20082;-81
2022/01/02 02:56:55;;;;;;;19.58;6.45;;;6.70;93.10;;;;;;5009366;28;20037;-82
2022/01/02 02:58:58;;;;;;;9.98;5.00;;;6.80;93.00;;;;;;4997117;28;20070;-81
2022/01/02 03:01:26;;;;;;;13.80;4.72;;;6.70;93.00;;;;;;5018196;28;20033;-81
2022/01/02 03:03:52;;;;;;;22.60;5.90;;;6.70;93.10;;;;;;5019543;28;20068;-82
2022/01/02 03:06:18;;;;;;;8.95;4.25;;;6.70;93.10;;;;;;5000240;28;20040;-80
2022/01/02 03:08:44;;;;;;;32.90;7.90;;;6.80;93.10;;;;;;5018435;28;20037;-82
2022/01/02 03:11:14;;;;;;;35.17;5.57;;;6.70;93.10;;;;;;5020565;28;20033;-82
2022/01/02 03:13:40;;;;;;;25.30;6.18;;;6.70;93.10;;;;;;5040401;28;20025;-81
2022/01/02 03:16:05;;;;;;;28.23;6.20;;;6.70;93.10;;;;;;5024814;28;20064;-81
2022/01/02 03:18:31;;;;;;;11.77;5.05;;;6.70;93.10;;;;;;5003170;28;20539;-82
2022/01/02 03:20:57;;;;;;;17.92;4.55;;;6.70;93.10;;;;;;4988095;28;20511;-80
2022/01/02 03:23:22;;;;;;;11.80;4.80;;;6.70;93.10;;;;;;5023723;28;20060;-82
2022/01/02 03:25:48;;;;;;;25.58;5.10;;;6.70;93.10;;;;;;5023504;28;20086;-82
2022/01/02 03:28:13;;;;;;;22.20;4.80;;;6.70;93.10;;;;;;5016910;28;21438;-81
2022/01/02 03:30:39;;;;;;;37.70;5.30;;;6.70;93.20;;;;;;5004142;28;20061;-81
2022/01/02 03:33:05;;;;;;;28.33;5.55;;;6.70;93.20;;;;;;5024420;28;20519;-82
2022/01/02 03:35:30;;;;;;;31.88;5.60;;;6.70;93.20;;;;;;4991128;28;20116;-82
2022/01/02 03:37:56;;;;;;;10.18;4.70;;;6.70;93.20;;;;;;5034250;28;20065;-83
2022/01/02 03:40:21;;;;;;;33.38;5.57;;;6.70;93.20;;;;;;5024642;28;20040;-82
2022/01/02 03:42:48;;;;;;;22.67;6.68;;;6.70;93.20;;;;;;5036356;28;20044;-81
2022/01/02 03:45:13;;;;;;;14.75;5.13;;;6.70;93.20;;;;;;5038122;28;20097;-81
2022/01/02 03:47:39;;;;;;;40.38;7.50;;;6.80;93.20;;;;;;5015693;28;20041;-82
2022/01/02 03:50:05;;;;;;;29.88;6.82;;;6.70;93.20;;;;;;5030595;28;20033;-80
2022/01/02 03:52:31;;;;;;;41.65;7.88;;;6.80;93.20;;;;;;5018885;28;20040;-81
2022/01/02 03:54:56;;;;;;;28.63;6.35;;;6.70;93.20;;;;;;5035382;28;20036;-81
2022/01/02 03:57:22;;;;;;;32.97;7.55;;;6.70;93.20;;;;;;5004560;28;20033;-80
2022/01/02 03:59:47;;;;;;;42.42;7.13;;;6.70;93.20;;;;;;5011412;28;20037;-80
2022/01/02 04:02:13;;;;;;;18.48;5.85;;;6.70;93.20;;;;;;5053358;28;20083;-81
2022/01/02 04:04:39;;;;;;;25.40;6.53;;;6.70;93.20;;;;;;5022932;28;20136;-80
2022/01/02 04:07:04;;;;;;;25.83;7.65;;;6.60;93.20;;;;;;5040909;28;20033;-81
2022/01/02 04:09:30;;;;;;;31.80;7.45;;;6.60;93.20;;;;;;5002436;28;20033;-81
2022/01/02 04:11:55;;;;;;;20.88;6.20;;;6.70;93.20;;;;;;5013984;28;20042;-80
2022/01/02 04:14:21;;;;;;;31.00;7.43;;;6.60;93.20;;;;;;5038614;28;20052;-80
2022/01/02 04:16:46;;;;;;;19.40;6.68;;;6.60;93.30;;;;;;5029552;28;20045;-80
2022/01/02 04:19:12;;;;;;;35.78;6.60;;;6.60;93.20;;;;;;5005097;28;20072;-80
2022/01/02 04:21:37;;;;;;;15.93;5.82;;;6.70;93.20;;;;;;5007333;28;20136;-80
2022/01/02 04:24:03;;;;;;;9.38;5.03;;;6.60;93.20;;;;;;5034514;28;20587;-80
2022/01/02 04:26:29;;;;;;;21.92;5.18;;;6.60;93.20;;;;;;5028657;28;20033;-81
2022/01/02 04:28:54;;;;;;;30.48;6.93;;;6.60;93.20;;;;;;5037947;28;20071;-82
2022/01/02 04:31:20;;;;;;;34.80;6.65;;;6.60;93.30;;;;;;5031390;28;20028;-81
2022/01/02 04:33:45;;;;;;;12.52;5.88;;;6.60;93.30;;;;;;5006586;28;20053;-82
2022/01/02 04:36:11;;;;;;;20.58;6.95;;;6.60;93.30;;;;;;5020613;28;20033;-82
2022/01/02 04:38:38;;;;;;;7.50;5.50;;;6.60;93.30;;;;;;5021131;28;20033;-81
2022/01/02 04:41:03;;;;;;;20.58;6.20;;;6.60;93.30;;;;;;5016242;28;20068;-82
2022/01/02 04:43:29;;;;;;;16.30;5.68;;;6.70;93.40;;;;;;4986065;28;20075;-81
2022/01/02 04:45:56;;;;;;;11.57;5.28;;;6.60;93.30;;;;;;5031170;28;20787;-82
2022/01/02 04:48:22;;;;;;;24.70;5.90;;;6.60;93.30;;;;;;5011235;28;20120;-81
2022/01/02 04:50:47;;;;;;;28.15;6.15;;;6.70;93.30;;;;;;5038002;28;20127;-81
2022/01/02 04:53:13;;;;;;;22.40;5.88;;;6.70;93.30;;;;;;5021337;28;20033;-81
2022/01/02 04:55:38;;;;;;;20.85;5.72;;;6.70;93.30;;;;;;5010713;28;20033;-83
2022/01/02 04:58:05;;;;;;;10.80;6.07;;;6.70;93.30;;;;;;5022231;28;20034;-82
2022/01/02 05:00:30;;;;;;;26.42;6.95;;;6.70;93.30;;;;;;5019375;28;20748;-81
2022/01/02 05:02:56;;;;;;;20.75;6.35;;;6.70;93.30;;;;;;4991216;28;20036;-81
2022/01/02 05:05:21;;;;;;;20.90;6.30;;;6.70;93.30;;;;;;5031640;28;20104;-81
2022/01/02 05:07:47;;;;;;;20.75;6.30;;;6.70;93.30;;;;;;5054366;28;20037;-81
2022/01/02 05:10:13;;;;;;;15.38;5.75;;;6.70;93.30;;;;;;5020169;28;20051;-80
2022/01/02 05:12:38;;;;;;;27.23;6.85;;;6.70;93.30;;;;;;5011072;28;20127;-82
2022/01/02 05:15:05;;;;;;;14.48;5.88;;;6.70;93.30;;;;;;5052233;28;20492;-81
2022/01/02 05:17:30;;;;;;;35.13;7.13;;;6.70;93.30;;;;;;5042984;28;20103;-81
2022/01/02 05:19:56;;;;;;;19.92;6.65;;;6.70;93.30;;;;;;5004898;28;20404;-81
2022/01/02 05:22:21;;;;;;;24.38;7.82;;;6.70;93.30;;;;;;5007427;28;20033;-81
2022/01/02 05:24:47;;;;;;;25.73;7.70;;;6.70;93.30;;;;;;5026175;28;20281;-81
2022/01/02 05:27:13;;;;;;;22.67;7.22;;;6.70;93.30;;;;;;5024126;28;20491;-82
2022/01/02 05:29:38;;;;;;;24.40;7.65;;;6.70;93.30;;;;;;5032505;28;20052;-81
2022/01/02 05:32:04;;;;;;;28.38;6.88;;;6.70;93.30;;;;;;5030392;28;20064;-81
2022/01/02 05:34:29;;;;;;;14.60;6.70;;;6.60;93.30;;;;;;5027229;28;20120;-81
2022/01/02 05:36:55;;;;;;;19.90;7.55;;;6.60;93.30;;;;;;5037550;28;20041;-82
2022/01/02 05:39:20;;;;;;;18.75;7.15;;;6.60;93.30;;;;;;5025057;28;20040;-82
2022/01/02 05:41:46;;;;;;;13.73;6.68;;;6.60;93.30;;;;;;5021866;28;20044;-81
2022/01/02 05:44:12;;;;;;;18.67;7.20;;;6.60;93.30;;;;;;5037993;28;20045;-81
2022/01/02 05:46:37;;;;;;;17.00;6.72;;;6.60;93.40;;;;;;5015285;28;20040;-81
2022/01/02 05:49:03;;;;;;;13.93;6.53;;;6.60;93.40;;;;;;5024605;28;20041;-81
2022/01/02 05:51:29;;;;;;;28.98;6.90;;;6.60;93.40;;;;;;5025792;28;20025;-82
2022/01/02 05:53:54;;;;;;;26.08;7.78;;;6.60;93.40;;;;;;5011491;28;20569;-81
2022/01/02 05:56:20;;;;;;;29.38;7.38;;;6.60;93.40;;;;;;5032984;28;20075;-81
2022/01/02 05:58:45;;;;;;;37.90;7.38;;;6.60;93.40;;;;;;5036977;28;20125;-81
2022/01/02 06:01:11;;;;;;;19.27;6.65;;;6.60;93.40;;;;;;5019905;28;20035;-81
2022/01/02 06:03:36;;;;;;;20.50;7.43;;;6.60;93.40;;;;;;5007520;28;20085;-81
2022/01/02 06:06:02;;;;;;;10.55;5.88;;;6.60;93.40;;;;;;4987870;28;20041;-81
2022/01/02 06:08:27;;;;;;;29.25;6.10;;;6.60;93.40;;;;;;5023211;28;20040;-81
2022/01/02 06:10:53;;;;;;;22.13;6.30;;;6.60;93.40;;;;;;5023936;28;20098;-81
2022/01/02 06:13:18;;;;;;;25.48;6.57;;;6.60;93.40;;;;;;5036860;28;20525;-82
2022/01/02 06:15:44;;;;;;;30.67;7.32;;;6.60;93.40;;;;;;5019001;28;20035;-82
2022/01/02 06:18:09;;;;;;;18.13;6.88;;;6.70;93.50;;;;;;5025513;28;20068;-81
2022/01/02 06:20:35;;;;;;;12.07;5.75;;;6.60;93.40;;;;;;5002505;28;20424;-82
2022/01/02 06:23:00;;;;;;;12.38;5.90;;;6.60;93.40;;;;;;5020336;28;20064;-82
2022/01/02 06:25:26;;;;;;;19.52;6.07;;;6.60;93.40;;;;;;5035683;28;20508;-82
2022/01/02 06:27:52;;;;;;;20.85;6.03;;;6.70;93.50;;;;;;5022151;28;20535;-82
2022/01/02 06:30:17;;;;;;;14.15;6.18;;;6.60;93.40;;;;;;5020501;28;20072;-82
2022/01/02 06:32:43;;;;;;;18.25;7.20;;;6.70;93.40;;;;;;5024593;28;20045;-82
2022/01/02 06:35:08;;;;;;;10.70;5.80;;;6.70;93.50;;;;;;5021144;28;20040;-82
2022/01/02 06:37:34;;;;;;;10.50;5.57;;;6.70;93.90;;;;;;5046813;28;20108;-81
2022/01/02 06:39:59;;;;;;;26.33;7.43;;;6.70;93.50;;;;;;5011551;28;20041;-81
2022/01/02 06:42:25;;;;;;;14.88;6.38;;;6.70;93.40;;;;;;5012550;28;20033;-82
2022/01/02 06:44:50;;;;;;;12.95;5.85;;;6.70;93.40;;;;;;5032214;28;20037;-83
2022/01/02 06:47:16;;;;;;;15.77;6.80;;;6.70;93.50;;;;;;5000589;28;20387;-83
2022/01/02 06:49:42;;;;;;;23.15;7.28;;;6.70;93.40;;;;;;5026321;28;20071;-81
2022/01/02 06:52:07;;;;;;;21.27;7.10;;;6.70;93.40;;;;;;5024013;28;20127;-81
2022/01/02 06:54:33;;;;;;;10.73;5.60;;;6.70;93.40;;;;;;5009646;28;20082;-81
2022/01/02 06:56:59;;;;;;;19.00;6.60;;;6.70;93.40;;;;;;5004580;28;20348;-82
2022/01/02 06:59:24;;;;;;;10.35;5.55;;;6.70;93.40;;;;;;5025165;28;20039;-81
2022/01/02 07:01:50;;;;;;;25.17;7.25;;;6.70;93.40;;;;;;5011630;28;20040;-82
2022/01/02 07:04:15;;;;;;;15.00;7.43;;;6.70;93.40;;;;;;5024777;28;20757;-82
2022/01/02 07:06:41;;;;;;;24.58;7.30;;;6.70;93.40;;;;;;4998382;28;20619;-81
2022/01/02 07:09:06;;;;;;;27.65;8.13;;;6.70;93.50;;;;;;5007116;28;20052;-81
2022/01/02 07:11:32;;;;;;;19.45;7.13;;;6.60;93.40;;;;;;5027202;28;20045;-81
2022/01/02 07:13:57;;;;;;;23.55;7.40;;;6.60;93.40;;;;;;5041287;28;20037;-82
2022/01/02 07:16:23;;;;;;;12.68;6.90;;;6.60;93.40;;;;;;4999068;28;20028;-80
2022/01/02 07:18:48;;;;;;;13.65;7.20;;;6.60;93.40;;;;;;5014617;28;20033;-79
2022/01/02 07:21:17;;;;;;;24.65;7.78;;;6.60;93.40;;;;;;5032565;28;20028;-82
2022/01/02 07:23:43;;;;;;;11.43;6.78;;;6.60;93.50;;;;;;4995073;28;20767;-80
2022/01/02 07:26:09;;;;;;;18.10;7.88;;;6.60;93.50;;;;;;5031000;28;20531;-80
2022/01/02 07:28:34;;;;;;;23.23;7.88;;;6.60;93.50;;;;;;5027421;28;20403;-82
2022/01/02 07:31:00;;;;;;;17.33;7.50;;;6.60;93.50;;;;;;5007273;28;20021;-80
2022/01/02 07:33:26;;;;;;;23.55;8.02;;;6.60;93.50;;;;;;5030488;28;20495;-80
2022/01/02 07:35:51;;;;;;;32.97;9.82;;;6.60;93.50;;;;;;5016588;28;20056;-81
2022/01/02 07:38:17;;;;;;;15.18;7.22;;;6.60;93.50;;;;;;5034382;28;20032;-82
2022/01/02 07:40:42;;;;;;;24.63;9.45;;;6.60;93.50;;;;;;5028349;28;20082;-83
2022/01/02 07:43:08;;;;;;;24.23;8.90;;;6.60;93.50;;;;;;5040178;28;20056;-80
2022/01/02 07:45:33;;;;;;;11.02;6.53;;;6.60;93.50;;;;;;5021058;28;20110;-80
2022/01/02 07:47:59;;;;;;;14.00;6.63;;;6.60;93.50;;;;;;5021708;28;20078;-80
2022/01/02 07:50:24;;;;;;;25.75;7.45;;;6.60;93.50;;;;;;5018551;28;20550;-80
2022/01/02 07:52:52;;;;;;;21.80;7.05;;;6.60;93.50;;;;;;5007463;28;20041;-82
2022/01/02 07:55:18;;;;;;;22.05;8.13;;;6.60;93.50;;;;;;5038807;28;20036;-80
2022/01/02 07:57:43;;;;;;;20.30;8.02;;;6.60;93.50;;;;;;5039575;28;20044;-80
2022/01/02 08:00:10;;;;;;;16.15;7.22;;;6.50;93.50;;;;;;4991244;28;20158;-81
2022/01/02 08:02:35;;;;;;;11.75;6.55;;;6.50;93.50;;;;;;5022456;28;22132;-80
2022/01/02 08:05:01;;;;;;;13.30;7.05;;;6.50;93.50;;;;;;5022034;28;20053;-81
2022/01/02 08:07:26;;;;;;;15.10;7.15;;;6.60;93.50;;;;;;5000870;28;20130;-80
2022/01/02 08:09:52;;;;;;;16.52;7.38;;;6.60;93.50;;;;;;5030910;28;20045;-80
2022/01/02 08:12:17;;;;;;;17.02;8.77;;;6.60;93.50;;;;;;5042122;28;20040;-81
2022/01/02 08:14:43;;;;;;;15.95;7.15;;;6.60;93.50;;;;;;5016334;28;20063;-80
2022/01/02 08:17:08;;;;;;;16.10;7.68;;;6.60;93.50;;;;;;5020207;28;20519;-81
2022/01/02 08:19:34;;;;;;;10.90;6.63;;;6.60;93.50;;;;;;5005760;28;20063;-82
2022/01/02 08:21:59;;;;;;;18.92;7.38;;;6.60;93.60;;;;;;5009151;28;20124;-82
2022/01/02 08:24:25;;;;;;;12.95;7.38;;;6.60;93.50;;;;;;5026965;28;20051;-82
2022/01/02 08:26:51;;;;;;;13.05;7.60;;;6.60;93.50;;;;;;5049402;28;20045;-81
2022/01/02 08:29:17;;;;;;;12.05;6.53;;;6.60;93.50;;;;;;5020942;28;20119;-83
2022/01/02 08:31:43;;;;;;;21.80;8.15;;;6.70;93.50;;;;;;4985247;28;20044;-81
2022/01/02 08:34:08;;;;;;;16.75;6.80;;;6.70;93.50;;;;;;5034604;28;20501;-81
2022/01/02 08:36:34;;;;;;;14.30;7.70;;;6.70;93.50;;;;;;5019020;28;20124;-81
2022/01/02 08:38:59;;;;;;;16.27;7.00;;;6.70;93.50;;;;;;5013006;28;20693;-82
2022/01/02 08:41:25;;;;;;;16.25;8.45;;;6.70;93.50;;;;;;5050725;28;20052;-81
2022/01/02 08:43:50;;;;;;;14.65;8.63;;;6.70;93.50;;;;;;5017313;28;20045;-81
2022/01/02 08:46:16;;;;;;;15.40;6.93;;;6.70;93.50;;;;;;4999524;28;20477;-81
2022/01/02 08:48:41;;;;;;;13.05;7.82;;;6.70;93.50;;;;;;5019793;28;20491;-81
2022/01/02 08:51:07;;;;;;;18.45;10.07;;;6.70;93.50;;;;;;5021014;28;20045;-82
2022/01/02 08:53:34;;;;;;;13.48;7.47;;;6.70;93.50;;;;;;5044782;28;20514;-81
2022/01/02 08:56:00;;;;;;;12.57;7.32;;;6.60;93.50;;;;;;5012074;28;20028;-84
2022/01/02 08:58:25;;;;;;;16.10;7.50;;;6.70;93.50;;;;;;5022442;28;20399;-80
2022/01/02 09:00:51;;;;;;;12.45;7.57;;;6.70;93.50;;;;;;5003589;28;20051;-82
2022/01/02 09:03:17;;;;;;;14.48;7.60;;;6.70;93.50;;;;;;5010848;28;20060;-82
2022/01/02 09:05:42;;;;;;;15.90;8.18;;;6.70;93.60;;;;;;5024832;28;20033;-82
2022/01/02 09:08:08;;;;;;;13.30;7.57;;;6.70;93.90;;;;;;5028625;28;20060;-81
2022/01/02 09:10:33;;;;;;;14.75;7.28;;;6.70;93.60;;;;;;4993547;28;20038;-81
2022/01/02 09:12:59;;;;;;;15.32;7.40;;;6.80;93.60;;;;;;4991017;28;20025;-82
2022/01/02 09:15:24;;;;;;;15.40;7.65;;;6.80;93.60;;;;;;5017733;28;20036;-81
2022/01/02 09:17:50;;;;;;;18.58;7.28;;;6.80;93.60;;;;;;5022387;28;20135;-81
2022/01/02 09:20:17;;;;;;;11.52;6.70;;;6.80;93.60;;;;;;5034269;28;20132;-82
2022/01/02 09:22:43;;;;;;;13.10;8.35;;;6.80;93.60;;;;;;4995925;28;20044;-81
2022/01/02 09:25:09;;;;;;;14.30;8.85;;;6.90;93.60;;;;;;5006264;28;20415;-81
2022/01/02 09:27:36;;;;;;;12.80;7.50;;;6.90;93.60;;;;;;5028626;28;20046;-81
2022/01/02 09:30:05;;;;;;;10.45;6.53;;;6.90;93.60;;;;;;4990730;28;20084;-82
2022/01/02 09:32:34;;;;;;;9.80;6.55;;;6.90;93.60;;;;;;5011515;28;20075;-82
2022/01/02 09:35:03;;;;;;;11.80;6.50;;;6.90;93.60;;;;;;5024802;28;20033;-82
2022/01/02 09:37:29;;;;;;;11.63;7.43;;;6.90;93.50;;;;;;5004632;28;20040;-81
2022/01/02 09:39:55;;;;;;;11.52;7.28;;;6.90;93.50;;;;;;5011826;28;20371;-82
2022/01/02 09:42:20;;;;;;;9.75;6.45;;;6.90;93.50;;;;;;5014639;28;20705;-82
2022/01/02 09:44:46;;;;;;;9.07;6.22;;;6.90;93.50;;;;;;5023412;28;20478;-82
2022/01/02 09:47:12;;;;;;;10.52;6.45;;;6.90;93.50;;;;;;4996266;28;20522;-81
2022/01/02 09:49:38;;;;;;;9.82;7.38;;;6.90;93.50;;;;;;5001002;28;20135;-82
2022/01/02 09:52:04;;;;;;;9.95;6.78;;;6.90;93.50;;;;;;5001246;28;20103;-82
2022/01/02 09:54:32;;;;;;;11.93;7.45;;;6.90;93.50;;;;;;5020271;28;20048;-82
2022/01/02 09:56:57;;;;;;;8.90;6.13;;;7.00;93.50;;;;;;5037185;28;20032;-81
2022/01/02 09:59:23;;;;;;;13.15;7.10;;;7.00;93.60;;;;;;5021813;28;20048;-82
2022/01/02 10:01:48;;;;;;;9.73;7.38;;;7.00;93.50;;;;;;5009144;28;20084;-82
2022/01/02 10:04:15;;;;;;;11.68;6.65;;;7.00;93.50;;;;;;5036140;28;20068;-81
2022/01/02 10:06:42;;;;;;;11.85;8.57;;;7.00;93.50;;;;;;5023591;28;20057;-81
2022/01/02 10:09:35;;;;;;;11.35;8.15;;;7.10;93.50;;;;;;4972759;28;20053;-83
2022/01/02 10:12:25;;;;;;;10.13;6.82;;;7.00;93.50;;;;;;5014416;28;20215;-82
2022/01/02 10:15:06;;;;;;;10.95;6.82;;;7.10;93.50;;;;;;5036282;28;20041;-81
2022/01/02 10:17:50;;;;;;;10.33;7.13;;;7.10;93.50;;;;;;5034059;28;20041;-81
2022/01/02 10:20:16;;;;;;;10.65;7.65;;;7.10;93.50;;;;;;5003128;28;20033;-82
2022/01/02 10:23:04;;;;;;;11.05;7.57;;;7.10;93.50;;;;;;5010389;28;20554;-82
2022/01/02 10:25:50;;;;;;;8.73;6.85;;;7.20;93.50;;;;;;5019880;28;20036;-82
2022/01/02 10:28:31;;;;;;;11.20;7.50;;;7.20;93.50;;;;;;4996524;28;20543;-81
2022/01/02 10:31:14;;;;;;;9.05;6.40;;;7.20;93.80;;;;;;5050087;28;20048;-81
2022/01/02 10:33:56;;;;;;;10.40;6.72;;;7.30;93.40;;;;;;5006349;28;20419;-82
2022/01/02 10:36:25;;;;;;;8.93;6.68;;;7.30;93.40;;;;;;5028696;28;20036;-81
2022/01/02 10:39:14;;;;;;;8.90;6.88;;;7.30;93.40;;;;;;5043661;28;20033;-81
2022/01/02 10:41:41;;;;;;;11.98;7.78;;;7.30;93.50;;;;;;5018868;28;20075;-81
2022/01/02 10:44:26;;;;;;;11.63;7.10;;;7.30;93.40;;;;;;5020714;28;20029;-81
2022/01/02 10:47:06;;;;;;;11.63;7.82;;;7.40;93.50;;;;;;5040261;28;20040;-81
2022/01/02 10:50:07;;;;;;;12.00;8.20;;;7.40;93.40;;;;;;5022796;28;20106;-82
2022/01/02 10:52:32;;;;;;;10.70;7.30;;;7.40;93.40;;;;;;5028168;28;20040;-81
2022/01/02 10:55:00;;;;;;;14.20;8.05;;;7.50;93.40;;;;;;5038844;28;20717;-81
2022/01/02 10:57:26;;;;;;;11.18;7.63;;;7.50;93.40;;;;;;5022819;28;20033;-81
2022/01/02 10:59:55;;;;;;;12.85;8.20;;;7.50;93.40;;;;;;5012447;28;20033;-81
2022/01/02 11:02:21;;;;;;;12.90;8.98;;;7.50;93.40;;;;;;5015083;28;20037;-82
2022/01/02 11:04:48;;;;;;;12.88;8.13;;;7.50;93.30;;;;;;5016801;28;20071;-81
2022/01/02 11:07:20;;;;;;;12.52;8.60;;;7.50;93.40;;;;;;5000726;28;20033;-81
2022/01/02 11:09:46;;;;;;;12.02;7.60;;;7.50;93.40;;;;;;5018427;28;20045;-82
2022/01/02 11:12:11;;;;;;;12.63;8.30;;;7.50;93.30;;;;;;5012113;28;20794;-82
2022/01/02 11:14:37;;;;;;;10.32;7.13;;;7.60;93.40;;;;;;5037419;28;20037;-82
2022/01/02 11:17:03;;;;;;;12.48;8.30;;;7.60;93.40;;;;;;5007337;28;20037;-82
2022/01/02 11:19:30;;;;;;;10.43;7.25;;;7.60;93.30;;;;;;5035433;28;20128;-81
2022/01/02 11:21:55;;;;;;;14.00;9.18;;;7.60;93.30;;;;;;5008142;28;20129;-82
2022/01/02 11:24:23;;;;;;;8.70;5.80;;;7.60;93.30;;;;;;5008821;28;20123;-82
2022/01/02 11:27:18;;;;;;;11.43;8.00;;;7.60;93.30;;;;;;5002448;28;20037;-82
2022/01/02 11:29:44;;;;;;;12.88;8.82;;;7.60;93.30;;;;;;5012181;28;20066;-81
2022/01/02 11:32:23;;;;;;;13.55;9.10;;;7.60;93.30;;;;;;5018048;28;20059;-81
2022/01/02 11:34:48;;;;;;;13.43;9.60;;;7.70;93.30;;;;;;5019146;28;20037;-82
2022/01/02 11:37:35;;;;;;;28.92;19.08;;;7.70;93.30;;;;;;5022929;28;20522;-81
2022/01/02 11:40:03;;;;;;;14.65;10.82;;;7.70;93.30;;;;;;5021157;28;20132;-82
2022/01/02 11:42:38;;;;;;;12.90;9.57;;;7.70;93.30;;;;;;5021918;28;20037;-80
2022/01/02 11:45:07;;;;;;;15.02;11.88;;;7.70;93.30;;;;;;5026627;28;20045;-82
2022/01/02 11:47:40;;;;;;;13.68;9.73;;;7.70;93.20;;;;;;5014735;28;20037;-81
2022/01/02 11:50:25;;;;;;;15.68;9.77;;;7.70;93.20;;;;;;5029090;28;20482;-81
2022/01/02 11:53:09;;;;;;;11.98;8.00;;;7.70;93.20;;;;;;5040614;28;20057;-82
2022/01/02 11:55:34;;;;;;;11.75;7.88;;;7.70;93.20;;;;;;5037993;28;20083;-82
2022/01/02 11:58:00;;;;;;;13.13;8.65;;;7.70;93.20;;;;;;5039507;28;20041;-81
2022/01/02 12:00:33;;;;;;;12.90;8.55;;;7.70;93.10;;;;;;4999491;28;21031;-81
2022/01/02 12:02:58;;;;;;;9.50;6.97;;;7.70;93.10;;;;;;5023981;28;20898;-82
2022/01/02 12:05:24;;;;;;;10.88;8.00;;;7.70;93.10;;;;;;4992429;28;20044;-81
2022/01/02 12:07:55;;;;;;;11.82;7.95;;;7.70;93.10;;;;;;5014433;28;20626;-81
2022/01/02 12:10:44;;;;;;;11.75;7.55;;;7.70;93.10;;;;;;5029840;28;20036;-83
2022/01/02 12:13:13;;;;;;;12.38;7.32;;;7.70;93.50;;;;;;5037204;28;20033;-83
2022/01/02 12:15:39;;;;;;;11.07;7.38;;;7.70;93.10;;;;;;5008581;28;20503;-82
2022/01/02 12:18:26;;;;;;;11.35;7.78;;;7.70;93.10;;;;;;5023908;28;20069;-80
2022/01/02 12:20:52;;;;;;;15.07;9.13;;;7.70;93.10;;;;;;5007721;28;20049;-81
2022/01/02 12:26:03;;;;;;;9.77;7.22;;;7.80;93.10;;;;;;5041082;28;20041;-81
2022/01/02 12:28:37;;;;;;;11.45;7.03;;;7.80;93.10;;;;;;5040151;28;20033;-81
2022/01/02 12:31:03;;;;;;;98.00;42.65;;;7.80;93.10;;;;;;5026632;28;20036;-82
2022/01/02 12:33:30;;;;;;;44.78;22.42;;;7.80;93.10;;;;;;5022319;28;20037;-82
2022/01/02 12:35:55;;;;;;;18.73;10.75;;;7.80;93.10;;;;;;5022892;28;20670;-81
2022/01/02 12:38:21;;;;;;;17.10;10.68;;;7.80;93.10;;;;;;5020975;28;20040;-81
2022/01/02 12:40:49;;;;;;;15.48;10.32;;;7.90;93.10;;;;;;5027812;28;20045;-81
2022/01/02 12:43:15;;;;;;;16.00;9.80;;;7.90;93.10;;;;;;5010802;28;20060;-82
2022/01/02 12:45:40;;;;;;;14.43;9.75;;;7.80;93.10;;;;;;5020374;28;20707;-82
2022/01/02 12:48:06;;;;;;;16.33;10.48;;;7.90;93.10;;;;;;5037416;28;20049;-81
2022/01/02 12:50:32;;;;;;;15.50;10.93;;;7.90;93.10;;;;;;5033658;28;20047;-81
2022/01/02 12:52:58;;;;;;;14.30;9.65;;;7.90;93.10;;;;;;5008986;28;20589;-82
2022/01/02 12:55:24;;;;;;;13.30;8.93;;;7.90;93.10;;;;;;5028887;28;20036;-80
2022/01/02 12:57:49;;;;;;;13.40;9.48;;;7.90;93.10;;;;;;5036515;28;20606;-81
2022/01/02 13:00:15;;;;;;;18.48;11.27;;;7.90;93.10;;;;;;4983875;28;20052;-81
2022/01/02 13:02:40;;;;;;;20.17;13.32;;;8.00;93.20;;;;;;5016997;28;20040;-81